sensor_id;sensor_type;location;lat;lon;timestamp;pressure;altitude;pressure_sealevel;temperature;humidity
48614;BME280;34408;51.426;5.444;2022-10-16T00:01:31;100955.41;;;14.87;67.90
48614;BME280;34408;51.426;5.444;2022-10-16T00:04:00;100952.69;;;14.87;68.19
48614;BME280;34408;51.426;5.444;2022-10-16T00:06:30;100963.50;;;14.87;68.09
48614;BME280;34408;51.426;5.444;2022-10-16T00:08:59;100952.13;;;14.85;68.01
48614;BME280;34408;51.426;5.444;2022-10-16T00:11:28;100943.94;;;14.80;68.07
48614;BME280;34408;51.426;5.444;2022-10-16T00:13:59;100951.31;;;14.84;68.29
48614;BME280;34408;51.426;5.444;2022-10-16T00:16:28;100954.00;;;14.84;68.10
48614;BME280;34408;51.426;5.444;2022-10-16T00:18:56;100953.44;;;14.82;68.09
48614;BME280;34408;51.426;5.444;2022-10-16T00:21:25;100961.31;;;14.84;68.25
48614;BME280;34408;51.426;5.444;2022-10-16T00:23:55;100960.50;;;14.83;68.03
48614;BME280;34408;51.426;5.444;2022-10-16T00:26:26;100941.22;;;14.80;68.18
48614;BME280;34408;51.426;5.444;2022-10-16T00:28:54;100948.28;;;14.81;68.06
48614;BME280;34408;51.426;5.444;2022-10-16T00:31:22;100945.00;;;14.79;68.21
48614;BME280;34408;51.426;5.444;2022-10-16T00:33:50;100947.69;;;14.79;68.32
48614;BME280;34408;51.426;5.444;2022-10-16T00:36:20;100950.41;;;14.79;68.13
48614;BME280;34408;51.426;5.444;2022-10-16T00:38:50;100956.06;;;14.77;68.13
48614;BME280;34408;51.426;5.444;2022-10-16T00:41:21;100969.59;;;14.77;68.20
48614;BME280;34408;51.426;5.444;2022-10-16T00:43:52;100968.78;;;14.77;68.48
48614;BME280;34408;51.426;5.444;2022-10-16T00:46:22;100968.19;;;14.75;68.30
48614;BME280;34408;51.426;5.444;2022-10-16T00:48:55;100947.94;;;14.60;68.08
48614;BME280;34408;51.426;5.444;2022-10-16T00:51:28;100976.31;;;14.75;68.24
48614;BME280;34408;51.426;5.444;2022-10-16T00:53:59;100971.97;;;14.74;68.22
48614;BME280;34408;51.426;5.444;2022-10-16T00:56:27;100967.63;;;14.73;68.39
48614;BME280;34408;51.426;5.444;2022-10-16T00:58:57;100950.16;;;14.63;68.39
48614;BME280;34408;51.426;5.444;2022-10-16T01:01:25;100967.88;;;14.71;68.20
48614;BME280;34408;51.426;5.444;2022-10-16T01:03:53;100970.56;;;14.71;68.08
48614;BME280;34408;51.426;5.444;2022-10-16T01:06:23;100963.53;;;14.70;68.18
48614;BME280;34408;51.426;5.444;2022-10-16T01:09:02;100957.28;;;14.70;68.31
48614;BME280;34408;51.426;5.444;2022-10-16T01:11:40;100955.66;;;14.69;68.23
48614;BME280;34408;51.426;5.444;2022-10-16T01:14:21;100946.72;;;14.68;68.39
48614;BME280;34408;51.426;5.444;2022-10-16T01:16:53;100955.91;;;14.67;68.28
48614;BME280;34408;51.426;5.444;2022-10-16T01:19:35;100954.25;;;14.66;68.22
48614;BME280;34408;51.426;5.444;2022-10-16T01:22:07;100954.25;;;14.66;68.16
48614;BME280;34408;51.426;5.444;2022-10-16T01:24:39;100948.84;;;14.66;68.15
48614;BME280;34408;51.426;5.444;2022-10-16T01:27:11;100958.03;;;14.65;68.13
48614;BME280;34408;51.426;5.444;2022-10-16T01:29:45;100965.09;;;14.66;68.08
48614;BME280;34408;51.426;5.444;2022-10-16T01:32:19;100951.97;;;14.58;68.30
48614;BME280;34408;51.426;5.444;2022-10-16T01:34:51;100968.03;;;14.64;68.26
48614;BME280;34408;51.426;5.444;2022-10-16T01:37:28;100966.41;;;14.63;68.49
48614;BME280;34408;51.426;5.444;2022-10-16T01:39:59;100964.50;;;14.64;68.23
48614;BME280;34408;51.426;5.444;2022-10-16T01:42:32;100968.28;;;14.63;68.08
48614;BME280;34408;51.426;5.444;2022-10-16T01:45:02;100975.81;;;14.61;68.28
48614;BME280;34408;51.426;5.444;2022-10-16T01:47:33;100967.72;;;14.61;68.08
48614;BME280;34408;51.426;5.444;2022-10-16T01:50:04;100965.00;;;14.61;68.43
48614;BME280;34408;51.426;5.444;2022-10-16T01:52:35;100960.66;;;14.60;68.09
48614;BME280;34408;51.426;5.444;2022-10-16T01:55:07;100952.13;;;14.51;68.01
48614;BME280;34408;51.426;5.444;2022-10-16T01:57:40;100972.28;;;14.60;68.14
48614;BME280;34408;51.426;5.444;2022-10-16T02:00:12;100971.47;;;14.60;68.31
48614;BME280;34408;51.426;5.444;2022-10-16T02:02:41;100958.84;;;14.49;68.18
48614;BME280;34408;51.426;5.444;2022-10-16T02:05:13;100947.94;;;14.44;68.28
48614;BME280;34408;51.426;5.444;2022-10-16T02:07:43;100972.78;;;14.57;68.19
48614;BME280;34408;51.426;5.444;2022-10-16T02:10:11;100983.59;;;14.57;68.02
48614;BME280;34408;51.426;5.444;2022-10-16T02:12:45;100977.38;;;14.57;68.31
48614;BME280;34408;51.426;5.444;2022-10-16T02:15:16;100965.97;;;14.55;68.30
48614;BME280;34408;51.426;5.444;2022-10-16T02:17:44;100964.09;;;14.55;68.27
48614;BME280;34408;51.426;5.444;2022-10-16T02:20:12;100955.16;;;14.55;67.95
48614;BME280;34408;51.426;5.444;2022-10-16T02:22:43;100961.63;;;14.54;68.14
48614;BME280;34408;51.426;5.444;2022-10-16T02:25:18;100954.59;;;14.53;68.23
48614;BME280;34408;51.426;5.444;2022-10-16T02:27:53;100969.16;;;14.52;68.11
48614;BME280;34408;51.426;5.444;2022-10-16T02:30:25;100962.94;;;14.51;68.22
48614;BME280;34408;51.426;5.444;2022-10-16T02:32:58;100959.09;;;14.47;68.16
48614;BME280;34408;51.426;5.444;2022-10-16T02:35:27;100956.31;;;14.42;68.19
48614;BME280;34408;51.426;5.444;2022-10-16T02:37:56;100973.19;;;14.49;68.18
48614;BME280;34408;51.426;5.444;2022-10-16T02:40:25;100975.06;;;14.49;68.09
48614;BME280;34408;51.426;5.444;2022-10-16T02:42:55;100958.63;;;14.39;67.87
48614;BME280;34408;51.426;5.444;2022-10-16T02:45:25;100970.97;;;14.46;68.35
48614;BME280;34408;51.426;5.444;2022-10-16T02:47:53;100969.91;;;14.47;67.99
48614;BME280;34408;51.426;5.444;2022-10-16T02:50:21;100970.97;;;14.46;68.28
48614;BME280;34408;51.426;5.444;2022-10-16T02:52:51;100977.44;;;14.45;68.37
48614;BME280;34408;51.426;5.444;2022-10-16T02:55:20;100976.63;;;14.45;68.17
48614;BME280;34408;51.426;5.444;2022-10-16T02:57:48;100960.63;;;14.43;68.25
48614;BME280;34408;51.426;5.444;2022-10-16T03:00:18;100972.28;;;14.44;67.91
48614;BME280;34408;51.426;5.444;2022-10-16T03:02:46;100963.22;;;14.38;68.16
48614;BME280;34408;51.426;5.444;2022-10-16T03:05:14;100980.63;;;14.42;68.22
48614;BME280;34408;51.426;5.444;2022-10-16T03:07:43;100978.28;;;14.34;68.16
48614;BME280;34408;51.426;5.444;2022-10-16T03:10:11;100991.66;;;14.41;68.23
48614;BME280;34408;51.426;5.444;2022-10-16T03:12:39;100977.56;;;14.39;67.88
48614;BME280;34408;51.426;5.444;2022-10-16T03:15:08;100978.63;;;14.38;68.09
48614;BME280;34408;51.426;5.444;2022-10-16T03:17:38;100986.75;;;14.38;68.11
48614;BME280;34408;51.426;5.444;2022-10-16T03:20:06;100999.19;;;14.39;68.03
48614;BME280;34408;51.426;5.444;2022-10-16T03:22:35;100999.19;;;14.39;68.12
48614;BME280;34408;51.426;5.444;2022-10-16T03:25:03;100986.75;;;14.38;68.17
48614;BME280;34408;51.426;5.444;2022-10-16T03:27:32;100999.44;;;14.37;68.09
48614;BME280;34408;51.426;5.444;2022-10-16T03:30:00;101002.16;;;14.37;67.96
48614;BME280;34408;51.426;5.444;2022-10-16T03:32:28;100999.44;;;14.37;67.85
48614;BME280;34408;51.426;5.444;2022-10-16T03:34:58;100988.63;;;14.37;67.94
48614;BME280;34408;51.426;5.444;2022-10-16T03:37:26;100973.38;;;14.31;67.99
48614;BME280;34408;51.426;5.444;2022-10-16T03:39:55;100992.16;;;14.38;67.91
48614;BME280;34408;51.426;5.444;2022-10-16T03:42:23;100983.03;;;14.27;68.12
48614;BME280;34408;51.426;5.444;2022-10-16T03:44:51;101010.25;;;14.37;68.02
48614;BME280;34408;51.426;5.444;2022-10-16T03:47:20;100998.19;;;14.28;67.92
48614;BME280;34408;51.426;5.444;2022-10-16T03:49:50;101013.22;;;14.36;68.32
48614;BME280;34408;51.426;5.444;2022-10-16T03:52:20;101015.91;;;14.36;67.91
48614;BME280;34408;51.426;5.444;2022-10-16T03:54:48;101027.78;;;14.34;68.25
48614;BME280;34408;51.426;5.444;2022-10-16T03:57:16;101026.16;;;14.33;68.14
48614;BME280;34408;51.426;5.444;2022-10-16T03:59:45;101003.84;;;14.26;68.16
48614;BME280;34408;51.426;5.444;2022-10-16T04:02:13;101027.78;;;14.34;68.39
48614;BME280;34408;51.426;5.444;2022-10-16T04:04:41;101016.16;;;14.34;68.19
48614;BME280;34408;51.426;5.444;2022-10-16T04:07:09;101022.63;;;14.33;67.81
48614;BME280;34408;51.426;5.444;2022-10-16T04:09:39;101005.38;;;14.22;68.19
48614;BME280;34408;51.426;5.444;2022-10-16T04:12:07;101026.16;;;14.33;67.83
48614;BME280;34408;51.426;5.444;2022-10-16T04:14:36;101036.13;;;14.33;68.19
48614;BME280;34408;51.426;5.444;2022-10-16T04:17:04;101028.03;;;14.33;67.91
48614;BME280;34408;51.426;5.444;2022-10-16T04:19:32;101013.50;;;14.22;67.97
48614;BME280;34408;51.426;5.444;2022-10-16T04:22:00;101038.03;;;14.32;68.07
48614;BME280;34408;51.426;5.444;2022-10-16T04:24:28;101029.09;;;14.32;68.15
48614;BME280;34408;51.426;5.444;2022-10-16T04:26:58;101022.19;;;14.24;68.12
48614;BME280;34408;51.426;5.444;2022-10-16T04:29:27;101026.38;;;14.32;68.28
48614;BME280;34408;51.426;5.444;2022-10-16T04:31:55;101021.81;;;14.32;68.09
48614;BME280;34408;51.426;5.444;2022-10-16T04:34:23;101033.09;;;14.29;67.89
48614;BME280;34408;51.426;5.444;2022-10-16T04:36:52;101039.09;;;14.31;67.94
48614;BME280;34408;51.426;5.444;2022-10-16T04:39:20;101033.69;;;14.31;68.12
48614;BME280;34408;51.426;5.444;2022-10-16T04:41:48;101025.94;;;14.23;67.92
48614;BME280;34408;51.426;5.444;2022-10-16T04:44:18;101032.19;;;14.24;68.35
48614;BME280;34408;51.426;5.444;2022-10-16T04:46:46;101039.31;;;14.30;68.02
48614;BME280;34408;51.426;5.444;2022-10-16T04:49:14;101049.31;;;14.29;67.93
48614;BME280;34408;51.426;5.444;2022-10-16T04:51:42;101053.66;;;14.30;68.06
48614;BME280;34408;51.426;5.444;2022-10-16T04:54:11;101053.09;;;14.28;68.03
48614;BME280;34408;51.426;5.444;2022-10-16T04:56:39;101056.84;;;14.27;68.22
48614;BME280;34408;51.426;5.444;2022-10-16T04:59:13;101061.19;;;14.28;68.24
48614;BME280;34408;51.426;5.444;2022-10-16T05:01:43;101066.59;;;14.28;67.96
48614;BME280;34408;51.426;5.444;2022-10-16T05:04:12;101061.44;;;14.27;68.35
48614;BME280;34408;51.426;5.444;2022-10-16T05:06:42;101066.59;;;14.28;68.33
48614;BME280;34408;51.426;5.444;2022-10-16T05:09:10;101064.97;;;14.27;68.13
48614;BME280;34408;51.426;5.444;2022-10-16T05:11:38;101076.00;;;14.26;68.36
48614;BME280;34408;51.426;5.444;2022-10-16T05:14:06;101086.81;;;14.26;68.24
48614;BME280;34408;51.426;5.444;2022-10-16T05:16:34;101088.38;;;14.22;68.14
48614;BME280;34408;51.426;5.444;2022-10-16T05:19:03;101089.53;;;14.26;68.19
48614;BME280;34408;51.426;5.444;2022-10-16T05:21:51;101087.06;;;14.24;68.42
48614;BME280;34408;51.426;5.444;2022-10-16T05:24:19;101093.06;;;14.26;68.33
48614;BME280;34408;51.426;5.444;2022-10-16T05:26:46;101088.72;;;14.25;68.03
48614;BME280;34408;51.426;5.444;2022-10-16T05:29:14;101094.13;;;14.25;68.16
48614;BME280;34408;51.426;5.444;2022-10-16T05:31:42;101096.25;;;14.23;68.32
48614;BME280;34408;51.426;5.444;2022-10-16T05:34:11;101096.47;;;14.22;68.48
48614;BME280;34408;51.426;5.444;2022-10-16T05:36:39;101093.78;;;14.22;68.10
48614;BME280;34408;51.426;5.444;2022-10-16T05:39:07;101104.59;;;14.22;68.60
48614;BME280;34408;51.426;5.444;2022-10-16T05:41:35;101112.69;;;14.22;68.46
48614;BME280;34408;51.426;5.444;2022-10-16T05:44:04;101111.06;;;14.21;68.23
48614;BME280;34408;51.426;5.444;2022-10-16T05:46:32;101122.94;;;14.20;68.16
48614;BME280;34408;51.426;5.444;2022-10-16T05:49:00;101132.91;;;14.19;68.31
48614;BME280;34408;51.426;5.444;2022-10-16T05:51:29;101129.41;;;14.19;68.19
48614;BME280;34408;51.426;5.444;2022-10-16T05:53:57;101128.56;;;14.18;68.44
48614;BME280;34408;51.426;5.444;2022-10-16T05:56:25;101137.50;;;14.19;68.22
48614;BME280;34408;51.426;5.444;2022-10-16T05:58:52;101145.63;;;14.19;68.40
48614;BME280;34408;51.426;5.444;2022-10-16T06:01:20;101142.09;;;14.18;68.32
48614;BME280;34408;51.426;5.444;2022-10-16T06:03:51;101148.31;;;14.19;68.45
48614;BME280;34408;51.426;5.444;2022-10-16T06:06:20;101152.09;;;14.18;68.66
48614;BME280;34408;51.426;5.444;2022-10-16T06:08:50;101159.38;;;14.17;68.63
48614;BME280;34408;51.426;5.444;2022-10-16T06:11:20;101155.03;;;14.16;68.33
48614;BME280;34408;51.426;5.444;2022-10-16T06:13:49;101157.50;;;14.18;68.25
48614;BME280;34408;51.426;5.444;2022-10-16T06:16:18;101147.03;;;14.10;68.67
48614;BME280;34408;51.426;5.444;2022-10-16T06:18:46;101167.47;;;14.17;68.51
48614;BME280;34408;51.426;5.444;2022-10-16T06:21:16;101177.22;;;14.18;68.64
48614;BME280;34408;51.426;5.444;2022-10-16T06:23:45;101180.16;;;14.17;68.60
48614;BME280;34408;51.426;5.444;2022-10-16T06:26:16;101182.06;;;14.16;68.19
48614;BME280;34408;51.426;5.444;2022-10-16T06:28:44;101176.06;;;14.14;68.41
48614;BME280;34408;51.426;5.444;2022-10-16T06:31:13;101179.81;;;14.13;68.58
48614;BME280;34408;51.426;5.444;2022-10-16T06:33:41;101177.94;;;14.14;68.30
48614;BME280;34408;51.426;5.444;2022-10-16T06:36:11;101189.81;;;14.13;68.43
48614;BME280;34408;51.426;5.444;2022-10-16T06:38:39;101196.28;;;14.12;68.71
48614;BME280;34408;51.426;5.444;2022-10-16T06:41:09;101208.97;;;14.11;68.78
48614;BME280;34408;51.426;5.444;2022-10-16T06:43:40;101210.03;;;14.10;68.38
48614;BME280;34408;51.426;5.444;2022-10-16T06:46:10;101206.50;;;14.10;68.79
48614;BME280;34408;51.426;5.444;2022-10-16T06:48:38;101218.97;;;14.11;68.60
48614;BME280;34408;51.426;5.444;2022-10-16T06:51:09;101228.13;;;14.10;68.84
48614;BME280;34408;51.426;5.444;2022-10-16T06:53:39;101232.72;;;14.09;68.70
48614;BME280;34408;51.426;5.444;2022-10-16T06:56:30;101236.25;;;14.10;68.48
48614;BME280;34408;51.426;5.444;2022-10-16T06:59:00;101238.94;;;14.10;68.53
48614;BME280;34408;51.426;5.444;2022-10-16T07:01:28;101236.47;;;14.08;68.54
48614;BME280;34408;51.426;5.444;2022-10-16T07:03:56;101249.97;;;14.08;68.87
48614;BME280;34408;51.426;5.444;2022-10-16T07:06:26;101252.69;;;14.08;68.81
48614;BME280;34408;51.426;5.444;2022-10-16T07:08:54;101240.59;;;13.99;68.89
48614;BME280;34408;51.426;5.444;2022-10-16T07:11:23;101252.09;;;14.06;68.74
48614;BME280;34408;51.426;5.444;2022-10-16T07:13:51;101263.72;;;14.07;68.50
48614;BME280;34408;51.426;5.444;2022-10-16T07:16:25;101263.72;;;14.07;68.57
48614;BME280;34408;51.426;5.444;2022-10-16T07:18:54;101266.44;;;14.07;68.44
48614;BME280;34408;51.426;5.444;2022-10-16T07:21:27;101274.31;;;14.08;68.67
48614;BME280;34408;51.426;5.444;2022-10-16T07:23:57;101273.50;;;14.08;68.49
48614;BME280;34408;51.426;5.444;2022-10-16T07:26:27;101277.00;;;14.08;68.48
48614;BME280;34408;51.426;5.444;2022-10-16T07:28:55;101282.41;;;14.08;68.78
48614;BME280;34408;51.426;5.444;2022-10-16T07:31:24;101289.47;;;14.09;68.60
48614;BME280;34408;51.426;5.444;2022-10-16T07:33:53;101285.00;;;14.03;68.89
48614;BME280;34408;51.426;5.444;2022-10-16T07:36:21;101293.59;;;14.12;68.53
48614;BME280;34408;51.426;5.444;2022-10-16T07:38:48;101289.00;;;14.12;68.96
48614;BME280;34408;51.426;5.444;2022-10-16T07:41:21;101297.47;;;14.16;68.79
48614;BME280;34408;51.426;5.444;2022-10-16T07:43:49;101307.22;;;14.17;69.02
48614;BME280;34408;51.426;5.444;2022-10-16T07:46:18;101304.41;;;14.12;69.05
48614;BME280;34408;51.426;5.444;2022-10-16T07:48:47;101313.69;;;14.16;69.08
48614;BME280;34408;51.426;5.444;2022-10-16T07:51:17;101324.50;;;14.16;68.98
48614;BME280;34408;51.426;5.444;2022-10-16T07:53:45;101330.13;;;14.14;69.27
48614;BME280;34408;51.426;5.444;2022-10-16T07:56:15;101329.91;;;14.16;69.31
48614;BME280;34408;51.426;5.444;2022-10-16T07:58:43;101335.31;;;14.16;69.32
48614;BME280;34408;51.426;5.444;2022-10-16T08:01:13;101346.72;;;14.18;69.60
48614;BME280;34408;51.426;5.444;2022-10-16T08:03:42;101347.06;;;14.21;69.43
48614;BME280;34408;51.426;5.444;2022-10-16T08:06:11;101348.34;;;14.19;69.21
48614;BME280;34408;51.426;5.444;2022-10-16T08:08:39;101352.13;;;14.18;69.63
48614;BME280;34408;51.426;5.444;2022-10-16T08:11:07;101356.81;;;14.22;70.08
48614;BME280;34408;51.426;5.444;2022-10-16T08:13:35;101352.84;;;14.25;69.71
48614;BME280;34408;51.426;5.444;2022-10-16T08:16:03;101353.41;;;14.15;69.70
48614;BME280;34408;51.426;5.444;2022-10-16T08:18:34;101364.94;;;14.22;69.74
48614;BME280;34408;51.426;5.444;2022-10-16T08:21:03;101371.53;;;14.26;69.74
48614;BME280;34408;51.426;5.444;2022-10-16T08:23:33;101375.63;;;14.29;69.80
48614;BME280;34408;51.426;5.444;2022-10-16T08:26:04;101378.69;;;14.32;69.24
48614;BME280;34408;51.426;5.444;2022-10-16T08:28:33;101376.94;;;14.38;69.38
48614;BME280;34408;51.426;5.444;2022-10-16T08:31:06;101378.34;;;14.41;69.00
48614;BME280;34408;51.426;5.444;2022-10-16T08:33:34;101377.09;;;14.43;69.40
48614;BME280;34408;51.426;5.444;2022-10-16T08:36:03;101370.03;;;14.42;69.40
48614;BME280;34408;51.426;5.444;2022-10-16T08:38:32;101376.03;;;14.44;69.16
48614;BME280;34408;51.426;5.444;2022-10-16T08:44:18;101390.97;;;14.47;69.31
48614;BME280;34408;51.426;5.444;2022-10-16T08:46:54;101394.63;;;14.52;69.60
48614;BME280;34408;51.426;5.444;2022-10-16T08:49:24;101396.38;;;14.58;69.62
48614;BME280;34408;51.426;5.444;2022-10-16T08:51:52;101410.50;;;14.60;69.32
48614;BME280;34408;51.426;5.444;2022-10-16T08:54:27;101410.03;;;14.63;69.16
48614;BME280;34408;51.426;5.444;2022-10-16T08:56:57;101408.16;;;14.64;69.30
48614;BME280;34408;51.426;5.444;2022-10-16T08:59:28;101395.56;;;14.58;68.87
48614;BME280;34408;51.426;5.444;2022-10-16T09:01:55;101406.50;;;14.63;69.13
48614;BME280;34408;51.426;5.444;2022-10-16T09:04:47;101412.75;;;14.75;70.00
48614;BME280;34408;51.426;5.444;2022-10-16T09:07:28;101411.22;;;14.68;69.68
48614;BME280;34408;51.426;5.444;2022-10-16T09:10:17;101414.75;;;14.68;69.59
48614;BME280;34408;51.426;5.444;2022-10-16T09:12:54;101407.91;;;14.65;69.79
48614;BME280;34408;51.426;5.444;2022-10-16T09:15:29;101415.81;;;14.67;69.41
48614;BME280;34408;51.426;5.444;2022-10-16T09:18:05;101418.50;;;14.79;69.18
48614;BME280;34408;51.426;5.444;2022-10-16T09:20:44;101424.84;;;14.73;69.53
48614;BME280;34408;51.426;5.444;2022-10-16T09:23:17;101402.84;;;14.57;69.83
48614;BME280;34408;51.426;5.444;2022-10-16T09:25:48;101433.44;;;14.70;69.82
48614;BME280;34408;51.426;5.444;2022-10-16T09:28:18;101438.97;;;14.75;70.25
48614;BME280;34408;51.426;5.444;2022-10-16T09:30:47;101437.22;;;14.69;70.32
48614;BME280;34408;51.426;5.444;2022-10-16T09:33:19;101438.03;;;14.69;70.58
48614;BME280;34408;51.426;5.444;2022-10-16T09:35:50;101441.78;;;14.68;70.71
48614;BME280;34408;51.426;5.444;2022-10-16T09:38:25;101440.75;;;14.69;70.58
48614;BME280;34408;51.426;5.444;2022-10-16T09:40:56;101447.78;;;14.70;70.80
48614;BME280;34408;51.426;5.444;2022-10-16T09:43:34;101446.97;;;14.70;70.77
48614;BME280;34408;51.426;5.444;2022-10-16T09:46:04;101447.22;;;14.68;70.49
48614;BME280;34408;51.426;5.444;2022-10-16T09:48:36;101450.03;;;14.73;70.70
48614;BME280;34408;51.426;5.444;2022-10-16T09:51:13;101444.63;;;14.73;70.74
48614;BME280;34408;51.426;5.444;2022-10-16T09:53:45;101451.44;;;14.76;70.48
48614;BME280;34408;51.426;5.444;2022-10-16T09:56:23;101457.69;;;14.76;70.41
48614;BME280;34408;51.426;5.444;2022-10-16T09:58:52;101452.03;;;14.78;70.51
48614;BME280;34408;51.426;5.444;2022-10-16T10:01:22;101456.38;;;14.79;70.20
48614;BME280;34408;51.426;5.444;2022-10-16T10:03:56;101448.03;;;14.80;70.25
48614;BME280;34408;51.426;5.444;2022-10-16T10:06:29;101455.91;;;14.82;70.10
48614;BME280;34408;51.426;5.444;2022-10-16T10:09:02;101461.09;;;14.83;70.25
48614;BME280;34408;51.426;5.444;2022-10-16T10:11:43;101466.03;;;14.86;70.34
48614;BME280;34408;51.426;5.444;2022-10-16T10:14:23;101452.88;;;14.78;70.38
48614;BME280;34408;51.426;5.444;2022-10-16T10:17:00;101464.16;;;14.87;70.41
48614;BME280;34408;51.426;5.444;2022-10-16T10:19:28;101465.56;;;14.89;70.05
48614;BME280;34408;51.426;5.444;2022-10-16T10:21:58;101470.16;;;14.89;70.11
48614;BME280;34408;51.426;5.444;2022-10-16T10:24:26;101466.88;;;14.87;70.05
48614;BME280;34408;51.426;5.444;2022-10-16T10:27:04;101472.41;;;14.92;70.03
48614;BME280;34408;51.426;5.444;2022-10-16T10:29:45;101477.34;;;14.95;69.50
48614;BME280;34408;51.426;5.444;2022-10-16T10:32:24;101483.34;;;14.97;69.96
48614;BME280;34408;51.426;5.444;2022-10-16T10:35:07;101476.88;;;14.98;69.78
48614;BME280;34408;51.426;5.444;2022-10-16T10:37:51;101483.69;;;15.01;69.95
48614;BME280;34408;51.426;5.444;2022-10-16T10:40:29;101481.34;;;15.04;69.97
48614;BME280;34408;51.426;5.444;2022-10-16T10:43:04;101482.16;;;15.05;69.75
48614;BME280;34408;51.426;5.444;2022-10-16T10:45:41;101483.00;;;15.05;69.78
48614;BME280;34408;51.426;5.444;2022-10-16T10:48:22;101484.16;;;15.09;69.64
48614;BME280;34408;51.426;5.444;2022-10-16T10:50:56;101484.75;;;15.11;69.55
48614;BME280;34408;51.426;5.444;2022-10-16T10:53:36;101487.22;;;15.13;69.82
48614;BME280;34408;51.426;5.444;2022-10-16T10:56:15;101490.28;;;15.16;69.61
48614;BME280;34408;51.426;5.444;2022-10-16T10:59:08;101478.84;;;15.26;70.15
48614;BME280;34408;51.426;5.444;2022-10-16T11:01:50;101485.66;;;15.40;72.08
48614;BME280;34408;51.426;5.444;2022-10-16T11:04:34;101492.25;;;15.44;71.84
48614;BME280;34408;51.426;5.444;2022-10-16T11:07:05;101495.31;;;15.48;70.35
48614;BME280;34408;51.426;5.444;2022-10-16T11:09:36;101489.88;;;15.48;69.63
48614;BME280;34408;51.426;5.444;2022-10-16T11:12:11;101492.94;;;15.51;70.44
48614;BME280;34408;51.426;5.444;2022-10-16T11:14:46;101488.94;;;15.54;70.59
48614;BME280;34408;51.426;5.444;2022-10-16T11:17:18;101484.94;;;15.56;71.04
48614;BME280;34408;51.426;5.444;2022-10-16T11:19:50;101488.25;;;15.58;71.21
48614;BME280;34408;51.426;5.444;2022-10-16T11:22:25;101489.91;;;15.59;70.08
48614;BME280;34408;51.426;5.444;2022-10-16T11:25:01;101489.91;;;15.59;69.64
48614;BME280;34408;51.426;5.444;2022-10-16T11:27:35;101495.31;;;15.59;68.58
48614;BME280;34408;51.426;5.444;2022-10-16T11:30:16;101499.75;;;15.66;69.67
48614;BME280;34408;51.426;5.444;2022-10-16T11:32:54;101493.84;;;15.69;70.70
48614;BME280;34408;51.426;5.444;2022-10-16T11:35:29;101489.00;;;15.71;70.66
48614;BME280;34408;51.426;5.444;2022-10-16T11:38:02;101484.06;;;15.68;70.53
48614;BME280;34408;51.426;5.444;2022-10-16T11:40:38;101501.59;;;15.77;70.12
48614;BME280;34408;51.426;5.444;2022-10-16T11:43:13;101486.41;;;15.76;70.87
48614;BME280;34408;51.426;5.444;2022-10-16T11:45:46;101508.88;;;15.88;70.74
48614;BME280;34408;51.426;5.444;2022-10-16T11:48:23;101508.41;;;15.91;70.79
48614;BME280;34408;51.426;5.444;2022-10-16T11:50:54;101503.06;;;15.96;71.26
48614;BME280;34408;51.426;5.444;2022-10-16T11:53:34;101504.47;;;15.99;71.45
48614;BME280;34408;51.426;5.444;2022-10-16T11:56:05;101504.56;;;16.04;71.19
48614;BME280;34408;51.426;5.444;2022-10-16T11:58:36;101507.88;;;16.06;71.52
48614;BME280;34408;51.426;5.444;2022-10-16T12:01:17;101501.97;;;16.09;71.15
48614;BME280;34408;51.426;5.444;2022-10-16T12:03:53;101505.50;;;16.09;71.17
48614;BME280;34408;51.426;5.444;2022-10-16T12:06:31;101507.13;;;16.10;70.83
48614;BME280;34408;51.426;5.444;2022-10-16T12:09:02;101500.66;;;16.11;70.44
48614;BME280;34408;51.426;5.444;2022-10-16T12:11:33;101506.66;;;16.13;70.87
48614;BME280;34408;51.426;5.444;2022-10-16T12:14:17;101502.88;;;16.14;70.85
48614;BME280;34408;51.426;5.444;2022-10-16T12:16:55;101511.84;;;16.15;70.07
48614;BME280;34408;51.426;5.444;2022-10-16T12:19:25;101514.56;;;16.15;68.76
48614;BME280;34408;51.426;5.444;2022-10-16T12:21:56;101515.38;;;16.15;68.42
48614;BME280;34408;51.426;5.444;2022-10-16T12:24:36;101524.19;;;16.22;69.53
48614;BME280;34408;51.426;5.444;2022-10-16T12:27:06;101517.94;;;16.22;70.06
48614;BME280;34408;51.426;5.444;2022-10-16T12:29:37;101508.75;;;16.23;70.72
48614;BME280;34408;51.426;5.444;2022-10-16T12:32:24;101512.38;;;16.28;71.36
48614;BME280;34408;51.426;5.444;2022-10-16T12:35:19;101517.78;;;16.28;71.10
48614;BME280;34408;51.426;5.444;2022-10-16T12:37:48;101516.97;;;16.28;69.97
48614;BME280;34408;51.426;5.444;2022-10-16T12:40:26;101503.41;;;16.28;69.64
48614;BME280;34408;51.426;5.444;2022-10-16T12:42:54;101508.84;;;16.28;68.72
48614;BME280;34408;51.426;5.444;2022-10-16T12:45:28;101491.63;;;16.22;69.81
48614;BME280;34408;51.426;5.444;2022-10-16T12:47:59;101505.16;;;16.34;70.50
48614;BME280;34408;51.426;5.444;2022-10-16T12:50:34;101515.25;;;16.39;70.54
48614;BME280;34408;51.426;5.444;2022-10-16T12:53:04;101507.69;;;16.41;70.24
48614;BME280;34408;51.426;5.444;2022-10-16T12:55:52;101504.50;;;16.44;69.94
48614;BME280;34408;51.426;5.444;2022-10-16T12:58:42;101496.69;;;16.47;68.81
48614;BME280;34408;51.426;5.444;2022-10-16T13:01:26;101497.84;;;16.51;69.31
48614;BME280;34408;51.426;5.444;2022-10-16T13:04:13;101506.00;;;16.51;68.27
48614;BME280;34408;51.426;5.444;2022-10-16T13:06:51;101494.91;;;16.53;68.48
48614;BME280;34408;51.426;5.444;2022-10-16T13:09:40;101493.81;;;16.54;67.87
48614;BME280;34408;51.426;5.444;2022-10-16T13:12:30;101497.94;;;16.56;68.84
48614;BME280;34408;51.426;5.444;2022-10-16T13:15:28;101511.84;;;16.60;69.23
48614;BME280;34408;51.426;5.444;2022-10-16T13:18:05;101509.47;;;16.64;69.27